Airfield :
LOGIN :

Register | Disclaimer

   EN    FR    IT 

 










Legend :    VFR   Marginal VFR   IFR   Intensive IFR   Very Intensive IFR
Visi :
Ceiling :
>= 8 km
>= 3000ft
5 to 8 km
1000 to 3000 ft
1500m to 5 km
500 to 1000 ft
800 to 1500m
200 to 500 ft
< 800m
< 200 ft
Symbols :   Thunderstorms  Fog  Heavy snow  Heavy precipitations  Wind > 20 kt
SIGMETs :     Misc.  Thunderstorms  Icing  Turbulence  Mountain Waves  Volcanic Ashes






- Airport Elevation : 436 ft
- IATA code : BTS


LZIB - Bratislava

CURRENT METAR :
  • 050000Z 28005KT CAVOK 08/M00 Q1013

EXPIRED METARs :
  • 042330Z 26004KT CAVOK 09/M01 Q1013
  • 042300Z 25006KT CAVOK 10/M01 Q1013
  • 042230Z 27005KT CAVOK 10/M00 Q1013
  • 042200Z 23003KT CAVOK 07/02 Q1013
  • 042130Z VRB01KT CAVOK 07/02 Q1013

TAF TAF LZIB
Valid from the 05 at 00:00 until the 06 at 00:00 UTC


042300Z 0500/0600 27007KT CAVOK
BECMG 0501/0503 28012KT 9999 BKN040
TEMPO 0504/0512 -SHRA BKN023
BECMG 0508/0510 35013KT
TEMPO 0509/0518 36015G25KT
BECMG 0518/0520 CAVOK



MET'MAP, your aeronautical weather chart ! - Copyright ORBIFLY December 2007 - Disclaimer

ORBIFLY MET'MAP TEAM :

Programming & Development : Alexandra Zaïnal
Concept & original design : Baudouin d'Aumeries
Assistance for programming : Marc-Olivier Méhu
Technical & hardware support : Manuel Goepfert

Contact : metmap@orbifly.com




SOURCES & CREDITS :

   NOAA